Terminal Aerodrome Forecast
Issued by NWS Melbourne, FL

Home | Current Version | Previous Version | Text Only | Print | Product List | Glossary On
Versions: 1 2 3 4 5 6 7 8 9 10 11 12 13 14
000
FTUS42 KMLB 202336
TAFDAB
TAF
KDAB 202336Z 2100/2124 06010KT P6SM SCT025 SCT300
     FM211400 07011G17KT P6SM SCT030 SCT300
     FM211800 06013G20KT P6SM SCT035 SCT050 SCT300=

USA.gov is the U.S. government's official web portal to all federal, state and local government web resources and services.